createdAt,value
2017-07-19T00:01:28.760Z,7.80
2017-07-19T00:03:55.668Z,7.40
2017-07-19T00:06:22.540Z,7.60
2017-07-19T00:08:49.417Z,6.33
2017-07-19T00:11:16.369Z,8.03
2017-07-19T00:13:43.355Z,7.10
2017-07-19T00:16:10.195Z,7.90
2017-07-19T00:18:37.364Z,7.57
2017-07-19T00:21:04.249Z,7.53
2017-07-19T00:23:31.101Z,6.90
2017-07-19T00:25:58.045Z,7.30
2017-07-19T00:28:24.929Z,7.50
2017-07-19T00:30:52.832Z,7.30
2017-07-19T00:33:19.806Z,7.00
2017-07-19T00:35:46.687Z,7.30
2017-07-19T00:38:13.544Z,6.93
2017-07-19T00:40:40.498Z,7.13
2017-07-19T00:43:07.395Z,7.63
2017-07-19T00:45:34.747Z,7.47
2017-07-19T00:48:01.695Z,7.00
2017-07-19T00:50:28.576Z,7.00
2017-07-19T00:52:55.429Z,6.50
2017-07-19T00:55:22.538Z,6.30
2017-07-19T00:57:49.358Z,6.90
2017-07-19T01:00:16.260Z,6.90
2017-07-19T01:02:43.149Z,6.80
2017-07-19T01:05:09.961Z,6.10
2017-07-19T01:07:36.784Z,6.87
2017-07-19T01:10:03.680Z,6.47
2017-07-19T01:12:30.506Z,6.50
2017-07-19T01:14:57.950Z,6.33
2017-07-19T01:17:25.080Z,6.30
2017-07-19T01:19:51.891Z,6.87
2017-07-19T01:22:19.543Z,6.03
2017-07-19T01:24:46.423Z,6.80
2017-07-19T01:27:13.255Z,6.10
2017-07-19T01:29:40.085Z,7.23
2017-07-19T01:32:07.034Z,6.20
2017-07-19T01:34:33.851Z,5.80
2017-07-19T01:37:00.696Z,6.97
2017-07-19T01:39:27.620Z,6.40
2017-07-19T01:41:54.474Z,6.10
2017-07-19T01:44:21.315Z,6.13
2017-07-19T01:46:48.261Z,6.30
2017-07-19T01:49:15.148Z,6.93
2017-07-19T01:51:41.994Z,6.80
2017-07-19T01:54:09.212Z,6.80
2017-07-19T01:56:36.066Z,6.87
2017-07-19T01:59:02.922Z,6.50
2017-07-19T02:01:29.930Z,6.90
2017-07-19T02:03:56.815Z,6.20
2017-07-19T02:06:23.721Z,6.30
2017-07-19T02:08:50.610Z,6.40
2017-07-19T02:11:17.479Z,6.33
2017-07-19T02:13:44.291Z,6.63
2017-07-19T02:16:12.893Z,6.20
2017-07-19T02:18:39.706Z,6.60
2017-07-19T02:21:06.528Z,7.37
2017-07-19T02:23:33.791Z,6.80
2017-07-19T02:26:00.638Z,6.90
2017-07-19T02:28:27.479Z,6.30
2017-07-19T02:30:54.397Z,6.63
2017-07-19T02:33:21.290Z,6.63
2017-07-19T02:35:48.139Z,6.17
2017-07-19T02:38:15.299Z,6.70
2017-07-19T02:40:42.155Z,7.17
2017-07-19T02:43:08.967Z,6.10
2017-07-19T02:45:35.872Z,6.37
2017-07-19T02:48:02.760Z,6.60
2017-07-19T02:50:29.589Z,7.00
2017-07-19T02:52:56.503Z,6.83
2017-07-19T02:55:23.488Z,7.23
2017-07-19T02:57:50.368Z,7.20
2017-07-19T03:00:17.509Z,7.23
2017-07-19T03:02:44.377Z,6.73
2017-07-19T03:05:11.212Z,6.60
2017-07-19T03:07:38.106Z,7.90
2017-07-19T03:10:04.984Z,6.60
2017-07-19T03:12:31.823Z,7.80
2017-07-19T03:14:58.769Z,8.60
2017-07-19T03:17:25.607Z,9.97
2017-07-19T03:19:52.416Z,8.63
2017-07-19T03:22:37.144Z,7.90
2017-07-19T03:25:03.961Z,8.20
2017-07-19T03:27:30.808Z,7.73
2017-07-19T03:29:57.759Z,10.73
2017-07-19T03:32:24.645Z,12.97
2017-07-19T03:34:51.483Z,9.37
2017-07-19T03:37:18.378Z,12.10
2017-07-19T03:39:45.196Z,11.30
2017-07-19T03:42:12.051Z,12.17
2017-07-19T03:44:38.964Z,11.53
2017-07-19T03:47:05.805Z,12.07
2017-07-19T03:49:32.619Z,10.90
2017-07-19T03:51:59.579Z,12.37
2017-07-19T03:54:26.457Z,10.70
2017-07-19T03:56:53.277Z,11.37
2017-07-19T03:59:20.420Z,10.20
2017-07-19T04:01:48.339Z,10.97
2017-07-19T04:04:15.188Z,9.93
2017-07-19T04:06:42.139Z,10.53
2017-07-19T04:09:08.987Z,10.17
2017-07-19T04:11:36.245Z,10.57
2017-07-19T04:14:03.210Z,12.50
2017-07-19T04:16:30.132Z,9.90
2017-07-19T04:18:57.302Z,9.60
2017-07-19T04:21:24.454Z,9.30
2017-07-19T04:23:51.289Z,9.37
2017-07-19T04:26:18.824Z,10.87
2017-07-19T04:28:45.731Z,10.57
2017-07-19T04:31:12.552Z,10.47
2017-07-19T04:33:39.372Z,9.97
2017-07-19T04:36:06.260Z,10.00
2017-07-19T04:38:33.175Z,13.80
2017-07-19T04:41:00.023Z,11.83
2017-07-19T04:43:26.930Z,11.40
2017-07-19T04:45:53.746Z,11.40
2017-07-19T04:48:20.572Z,11.90
2017-07-19T04:50:47.520Z,12.13
2017-07-19T04:53:15.167Z,11.73
2017-07-19T04:55:42.007Z,11.47
2017-07-19T04:58:09.175Z,12.93
2017-07-19T05:00:36.089Z,11.70
2017-07-19T05:03:03.636Z,11.00
2017-07-19T05:05:30.531Z,11.40
2017-07-19T05:07:57.361Z,11.47
2017-07-19T05:10:24.176Z,11.23
2017-07-19T05:12:51.129Z,11.30
2017-07-19T05:15:17.951Z,11.47
2017-07-19T05:17:44.832Z,10.53
2017-07-19T05:20:12.149Z,11.20
2017-07-19T05:22:38.971Z,11.13
2017-07-19T05:25:05.812Z,10.67
2017-07-19T05:27:32.759Z,10.80
2017-07-19T05:30:00.877Z,11.67
2017-07-19T05:32:27.789Z,12.13
2017-07-19T05:34:54.679Z,11.97
2017-07-19T05:45:38.905Z,11.23
2017-07-19T05:48:05.863Z,10.30
2017-07-19T05:50:32.714Z,10.70
2017-07-19T05:52:59.886Z,10.23
2017-07-19T05:55:26.722Z,10.00
2017-07-19T05:57:53.539Z,10.33
2017-07-19T06:00:20.444Z,10.00
2017-07-19T06:02:47.336Z,9.13
2017-07-19T06:05:14.294Z,10.07
2017-07-19T06:07:41.180Z,10.17
2017-07-19T06:10:08.433Z,11.40
2017-07-19T06:12:35.321Z,9.53
2017-07-19T06:15:02.209Z,12.53
2017-07-19T06:17:29.119Z,8.43
2017-07-19T06:19:55.995Z,9.27
2017-07-19T06:22:23.121Z,10.67
2017-07-19T06:24:50.683Z,10.83
2017-07-19T06:27:17.490Z,10.10
2017-07-19T06:29:45.103Z,10.13
2017-07-19T06:32:11.923Z,10.27
2017-07-19T06:34:38.751Z,9.30
2017-07-19T06:37:06.435Z,10.60
2017-07-19T06:39:33.252Z,10.07
2017-07-19T06:42:00.099Z,11.13
2017-07-19T06:44:27.067Z,12.67
2017-07-19T06:46:53.891Z,12.03
2017-07-19T06:49:20.777Z,11.43
2017-07-19T06:51:47.955Z,10.00
2017-07-19T06:54:14.832Z,10.70
2017-07-19T06:56:41.678Z,9.90
2017-07-19T06:59:08.536Z,11.43
2017-07-19T07:01:35.365Z,10.23
2017-07-19T07:04:02.216Z,10.60
2017-07-19T07:06:29.095Z,8.67
2017-07-19T07:08:55.947Z,11.17
2017-07-19T07:11:22.787Z,9.23
2017-07-19T07:13:49.723Z,9.83
2017-07-19T07:16:16.552Z,8.83
2017-07-19T07:18:43.359Z,9.87
2017-07-19T07:21:10.232Z,8.27
2017-07-19T07:23:37.060Z,8.97
2017-07-19T07:26:03.902Z,8.83
2017-07-19T07:28:31.812Z,9.17
2017-07-19T07:30:58.662Z,8.73
2017-07-19T07:33:25.522Z,9.00
2017-07-19T07:35:52.407Z,9.23
2017-07-19T07:38:19.250Z,8.17
2017-07-19T07:40:46.095Z,9.03
2017-07-19T07:43:12.948Z,9.17
2017-07-19T07:45:39.767Z,8.03
2017-07-19T07:48:06.650Z,9.03
2017-07-19T07:50:33.558Z,8.60
2017-07-19T07:53:00.441Z,9.50
2017-07-19T07:55:27.255Z,9.53
2017-07-19T07:57:54.094Z,9.27
2017-07-19T08:00:20.915Z,8.70
2017-07-19T08:02:47.727Z,8.40
2017-07-19T08:05:14.607Z,9.57
2017-07-19T08:07:41.509Z,8.20
2017-07-19T08:10:08.347Z,10.27
2017-07-19T08:12:35.200Z,8.30
2017-07-19T08:15:02.032Z,7.87
2017-07-19T08:17:28.913Z,8.37
2017-07-19T08:19:56.715Z,7.67
2017-07-19T08:22:23.591Z,7.83
2017-07-19T08:24:50.469Z,9.43
2017-07-19T08:27:17.345Z,8.60
2017-07-19T08:29:44.154Z,9.37
2017-07-19T08:32:10.967Z,7.90
2017-07-19T08:34:37.922Z,8.90
2017-07-19T08:37:04.736Z,7.77
2017-07-19T08:39:31.557Z,8.40
2017-07-19T08:41:58.455Z,7.57
2017-07-19T08:44:25.297Z,7.47
2017-07-19T08:46:52.865Z,8.00
2017-07-19T08:49:19.714Z,7.00
2017-07-19T08:51:46.555Z,7.20
2017-07-19T08:54:13.368Z,7.03
2017-07-19T08:56:40.301Z,7.10
2017-07-19T08:59:07.123Z,7.43
2017-07-19T09:01:33.958Z,6.90
2017-07-19T09:04:00.872Z,6.37
2017-07-19T09:06:28.642Z,7.00
2017-07-19T09:08:55.491Z,6.30
2017-07-19T09:11:22.348Z,5.33
2017-07-19T09:13:49.220Z,4.23
2017-07-19T09:16:16.166Z,3.90
2017-07-19T09:18:43.048Z,4.03
2017-07-19T09:21:09.866Z,4.90
2017-07-19T09:23:36.740Z,4.93
2017-07-19T09:26:03.704Z,5.23
2017-07-19T09:28:30.577Z,5.10
2017-07-19T09:30:57.394Z,4.97
2017-07-19T09:33:24.304Z,5.13
2017-07-19T09:35:51.258Z,5.10
2017-07-19T09:38:18.150Z,5.13
2017-07-19T09:40:45.053Z,4.70
2017-07-19T09:43:11.872Z,4.30
2017-07-19T09:45:38.689Z,4.73
2017-07-19T09:48:05.592Z,5.00
2017-07-19T09:50:32.407Z,5.03
2017-07-19T09:52:59.219Z,4.93
2017-07-19T09:55:26.160Z,6.43
2017-07-19T09:57:52.983Z,4.77
2017-07-19T10:00:19.840Z,4.67
2017-07-19T10:02:46.712Z,4.90
2017-07-19T10:05:13.639Z,4.40
2017-07-19T10:07:40.456Z,4.17
2017-07-19T10:10:08.967Z,4.37
2017-07-19T10:12:35.797Z,4.60
2017-07-19T10:15:02.619Z,4.43
2017-07-19T10:17:30.400Z,4.70
2017-07-19T10:19:57.239Z,4.60
2017-07-19T10:22:24.059Z,4.30
2017-07-19T10:24:50.931Z,4.73
2017-07-19T10:27:17.860Z,5.27
2017-07-19T10:29:44.691Z,4.93
2017-07-19T10:32:11.560Z,4.80
2017-07-19T10:34:40.115Z,4.67
2017-07-19T10:37:09.099Z,4.90
2017-07-19T10:39:35.970Z,5.20
2017-07-19T10:42:03.838Z,5.50
2017-07-19T10:44:31.244Z,5.10
2017-07-19T10:46:58.761Z,4.87
2017-07-19T10:49:27.173Z,5.50
2017-07-19T10:51:53.989Z,5.37
2017-07-19T10:54:20.871Z,5.20
2017-07-19T10:56:47.713Z,4.53
2017-07-19T10:59:14.557Z,5.10
2017-07-19T11:01:41.443Z,4.87
2017-07-19T11:04:08.259Z,5.23
2017-07-19T11:06:35.088Z,4.90
2017-07-19T11:09:01.964Z,4.30
2017-07-19T11:11:28.779Z,4.90
2017-07-19T11:13:56.533Z,4.37
2017-07-19T11:16:23.413Z,4.20
2017-07-19T11:18:50.288Z,3.90
2017-07-19T11:21:17.093Z,3.93
2017-07-19T11:23:43.968Z,4.47
2017-07-19T11:26:10.848Z,4.00
2017-07-19T11:28:37.722Z,4.00
2017-07-19T11:31:04.579Z,4.07
2017-07-19T11:33:31.515Z,4.63
2017-07-19T11:35:58.331Z,4.70
2017-07-19T11:38:25.191Z,6.77
2017-07-19T11:40:52.008Z,4.70
2017-07-19T11:43:18.847Z,4.90
2017-07-19T11:45:45.719Z,5.10
2017-07-19T11:48:12.560Z,5.00
2017-07-19T11:50:39.383Z,5.27
2017-07-19T11:53:06.338Z,4.43
2017-07-19T11:55:33.171Z,4.30
2017-07-19T11:58:00.017Z,4.23
2017-07-19T12:00:26.859Z,4.20
2017-07-19T12:02:54.256Z,3.90
2017-07-19T12:05:21.069Z,5.03
2017-07-19T12:07:47.943Z,5.10
2017-07-19T12:10:15.523Z,5.30
2017-07-19T12:12:42.344Z,5.10
2017-07-19T12:15:09.192Z,5.40
2017-07-19T12:17:36.074Z,5.40
2017-07-19T12:20:02.918Z,5.27
2017-07-19T12:22:29.860Z,5.80
2017-07-19T12:24:56.667Z,4.77
2017-07-19T12:27:23.584Z,4.80
2017-07-19T12:29:50.450Z,4.33
2017-07-19T12:32:17.301Z,4.57
2017-07-19T12:34:44.194Z,5.30
2017-07-19T12:37:11.112Z,6.47
2017-07-19T12:39:37.940Z,5.23
2017-07-19T12:42:04.744Z,5.50
2017-07-19T12:44:31.623Z,5.83
2017-07-19T12:46:58.500Z,5.40
2017-07-19T12:49:25.376Z,5.43
2017-07-19T12:51:52.225Z,5.40
2017-07-19T12:54:19.035Z,5.90
2017-07-19T12:56:45.875Z,5.83
2017-07-19T12:59:12.733Z,5.87
2017-07-19T13:01:39.609Z,5.70
2017-07-19T13:04:06.425Z,5.60
2017-07-19T13:06:33.346Z,6.07
2017-07-19T13:09:00.159Z,5.30
2017-07-19T13:11:26.996Z,5.93
2017-07-19T13:13:53.847Z,5.70
2017-07-19T13:16:20.720Z,5.40
2017-07-19T13:18:47.531Z,5.10
2017-07-19T13:21:14.411Z,5.47
2017-07-19T13:23:42.165Z,5.87
2017-07-19T13:26:09.045Z,6.00
2017-07-19T13:28:35.930Z,5.90
2017-07-19T13:31:02.829Z,5.90
2017-07-19T13:33:30.481Z,5.77
2017-07-19T13:35:57.331Z,5.90
2017-07-19T13:38:24.136Z,6.13
2017-07-19T13:40:50.947Z,6.33
2017-07-19T13:43:17.912Z,6.40
2017-07-19T13:45:44.719Z,8.30
2017-07-19T13:48:11.601Z,5.97
2017-07-19T13:50:38.532Z,7.00
2017-07-19T13:53:05.405Z,6.00
2017-07-19T13:55:32.215Z,5.80
2017-07-19T13:57:59.095Z,5.40
2017-07-19T14:00:25.934Z,5.77
2017-07-19T14:02:52.771Z,5.83
2017-07-19T14:05:19.652Z,6.40
2017-07-19T14:07:46.532Z,6.00
2017-07-19T14:10:13.339Z,6.00
2017-07-19T14:12:40.248Z,6.70
2017-07-19T14:15:07.125Z,6.33
2017-07-19T14:17:33.945Z,5.80
2017-07-19T14:20:00.807Z,5.57
2017-07-19T14:22:27.639Z,5.40
2017-07-19T14:24:54.559Z,6.20
2017-07-19T14:27:21.605Z,5.97
2017-07-19T14:29:48.575Z,5.50
2017-07-19T14:32:15.383Z,5.80
2017-07-19T14:34:42.237Z,5.57
2017-07-19T14:37:09.120Z,6.23
2017-07-19T14:39:35.993Z,5.97
2017-07-19T14:42:02.922Z,6.23
2017-07-19T14:44:29.809Z,5.70
2017-07-19T14:46:56.717Z,5.77
2017-07-19T14:49:23.579Z,5.10
2017-07-19T14:51:50.477Z,6.07
2017-07-19T14:54:17.365Z,6.23
2017-07-19T14:56:44.283Z,5.80
2017-07-19T14:59:11.098Z,5.57
2017-07-19T15:01:37.928Z,5.87
2017-07-19T15:04:04.842Z,5.60
2017-07-19T15:06:31.702Z,6.10
2017-07-19T15:08:58.532Z,5.63
2017-07-19T15:11:25.444Z,5.40
2017-07-19T15:13:52.312Z,5.60
2017-07-19T15:16:19.126Z,6.50
2017-07-19T15:18:45.996Z,5.37
2017-07-19T15:21:12.821Z,5.83
2017-07-19T15:23:39.631Z,5.70
2017-07-19T15:26:06.486Z,5.47
2017-07-19T15:28:34.241Z,5.83
2017-07-19T15:31:02.104Z,5.40
2017-07-19T15:33:28.999Z,5.67
2017-07-19T15:35:55.828Z,5.03
2017-07-19T15:38:22.657Z,5.47
2017-07-19T15:40:49.507Z,6.17
2017-07-19T15:43:16.323Z,6.10
2017-07-19T15:45:43.154Z,7.67
2017-07-19T15:48:10.560Z,7.80
2017-07-19T15:50:37.387Z,6.23
2017-07-19T15:53:04.219Z,6.50
2017-07-19T15:55:31.112Z,6.07
2017-07-19T15:57:57.976Z,6.07
2017-07-19T16:00:24.808Z,6.53
2017-07-19T16:02:52.021Z,6.20
2017-07-19T16:05:18.858Z,5.80
2017-07-19T16:07:45.715Z,6.77
2017-07-19T16:10:12.615Z,7.00
2017-07-19T16:12:39.503Z,7.00
2017-07-19T16:15:06.332Z,7.93
2017-07-19T16:17:33.217Z,6.80
2017-07-19T16:20:00.055Z,5.70
2017-07-19T16:22:26.868Z,5.60
2017-07-19T16:24:53.743Z,5.70
2017-07-19T16:27:21.003Z,6.07
2017-07-19T16:29:48.542Z,5.73
2017-07-19T16:32:15.478Z,8.30
2017-07-19T16:34:42.572Z,5.70
2017-07-19T16:37:09.505Z,7.73
2017-07-19T16:39:36.437Z,7.13
2017-07-19T16:42:04.055Z,6.63
2017-07-19T16:44:30.923Z,6.70
2017-07-19T16:46:58.410Z,6.27
2017-07-19T16:49:25.324Z,5.77
2017-07-19T16:51:52.157Z,6.00
2017-07-19T16:54:26.047Z,6.13
2017-07-19T16:56:57.605Z,6.40
2017-07-19T16:59:26.076Z,8.03
2017-07-19T17:01:53.684Z,9.73
2017-07-19T17:04:21.296Z,8.10
2017-07-19T17:06:48.175Z,7.30
2017-07-19T17:09:15.025Z,6.53
2017-07-19T17:11:41.845Z,7.10
2017-07-19T17:14:08.718Z,6.83
2017-07-19T17:16:35.607Z,6.03
2017-07-19T17:19:02.517Z,5.70
2017-07-19T17:21:29.387Z,5.87
2017-07-19T17:23:56.227Z,5.90
2017-07-19T17:26:23.050Z,5.63
2017-07-19T17:28:50.276Z,6.33
2017-07-19T17:31:17.165Z,7.47
2017-07-19T17:33:44.081Z,6.80
2017-07-19T17:36:10.979Z,7.10
2017-07-19T17:38:37.840Z,6.50
2017-07-19T17:41:04.654Z,7.20
2017-07-19T17:43:31.528Z,6.53
2017-07-19T17:45:58.390Z,7.23
2017-07-19T17:48:25.227Z,6.47
2017-07-19T17:50:52.238Z,6.33
2017-07-19T17:53:19.087Z,7.50
2017-07-19T17:55:46.712Z,6.70
2017-07-19T17:58:13.738Z,7.20
2017-07-19T18:00:40.547Z,7.27
2017-07-19T18:03:08.059Z,6.50
2017-07-19T18:05:35.012Z,7.13
2017-07-19T18:08:01.828Z,8.50
2017-07-19T18:10:28.670Z,6.70
2017-07-19T18:12:55.544Z,6.60
2017-07-19T18:15:22.530Z,7.03
2017-07-19T18:17:49.461Z,6.17
2017-07-19T18:20:16.377Z,6.90
2017-07-19T18:22:43.187Z,6.90
2017-07-19T18:25:10.148Z,7.07
2017-07-19T18:27:37.063Z,7.43
2017-07-19T18:30:03.877Z,7.37
2017-07-19T18:32:30.792Z,6.33
2017-07-19T18:34:57.685Z,7.37
2017-07-19T18:37:24.568Z,7.53
2017-07-19T18:39:51.375Z,6.60
2017-07-19T18:42:18.252Z,7.13
2017-07-19T18:44:45.149Z,7.40
2017-07-19T18:47:11.993Z,7.67
2017-07-19T18:49:38.874Z,8.33
2017-07-19T18:52:05.702Z,7.90
2017-07-19T18:54:32.508Z,7.90
2017-07-19T18:56:59.363Z,8.00
2017-07-19T18:59:26.184Z,8.10
2017-07-19T19:01:52.997Z,8.23
2017-07-19T19:04:19.914Z,7.70
2017-07-19T19:06:46.751Z,8.90
2017-07-19T19:09:13.563Z,7.83
2017-07-19T19:11:40.426Z,7.90
2017-07-19T19:14:07.304Z,8.13
2017-07-19T19:16:34.135Z,8.47
2017-07-19T19:19:01.998Z,7.17
2017-07-19T19:21:28.833Z,8.40
2017-07-19T19:23:55.836Z,9.20
2017-07-19T19:26:23.779Z,8.93
2017-07-19T19:28:50.612Z,8.73
2017-07-19T19:31:17.435Z,9.00
2017-07-19T19:33:44.303Z,9.67
2017-07-19T19:36:11.164Z,9.10
2017-07-19T19:38:38.023Z,9.17
2017-07-19T19:41:04.912Z,9.43
2017-07-19T19:43:31.732Z,9.43
2017-07-19T19:45:59.329Z,9.10
2017-07-19T19:48:26.287Z,9.90
2017-07-19T19:50:53.221Z,9.57
2017-07-19T19:53:20.172Z,9.07
2017-07-19T19:55:47.047Z,8.87
2017-07-19T19:58:17.607Z,11.37
2017-07-19T20:00:44.472Z,9.00
2017-07-19T20:03:11.412Z,9.37
2017-07-19T20:05:40.165Z,9.00
2017-07-19T20:08:07.069Z,9.23
2017-07-19T20:10:34.390Z,9.67
2017-07-19T20:13:01.336Z,9.30
2017-07-19T20:15:28.299Z,10.20
2017-07-19T20:17:55.353Z,10.53
2017-07-19T20:20:22.246Z,10.13
2017-07-19T20:22:51.538Z,10.20
2017-07-19T20:25:18.456Z,10.47
2017-07-19T20:27:45.295Z,9.97
2017-07-19T20:30:12.161Z,10.20
2017-07-19T20:32:39.537Z,9.70
2017-07-19T20:35:07.485Z,10.50
2017-07-19T20:37:35.150Z,10.57
2017-07-19T20:40:02.038Z,10.47
2017-07-19T20:42:28.923Z,10.13
2017-07-19T20:44:56.379Z,10.20
2017-07-19T20:47:23.240Z,10.23
2017-07-19T20:49:50.083Z,8.63
2017-07-19T20:52:16.973Z,9.53
2017-07-19T20:54:43.823Z,9.77
2017-07-19T20:57:10.658Z,10.13
2017-07-19T20:59:38.092Z,11.80
2017-07-19T21:02:04.971Z,11.20
2017-07-19T21:04:31.796Z,10.17
2017-07-19T21:06:58.657Z,9.93
2017-07-19T21:09:25.546Z,8.93
2017-07-19T21:11:52.384Z,9.43
2017-07-19T21:14:19.280Z,9.53
2017-07-19T21:16:46.204Z,10.33
2017-07-19T21:19:13.073Z,10.43
2017-07-19T21:21:39.931Z,9.47
2017-07-19T21:24:06.791Z,8.73
2017-07-19T21:26:33.646Z,9.33
2017-07-19T21:29:00.460Z,8.40
2017-07-19T21:31:27.319Z,9.40
2017-07-19T21:33:54.148Z,9.37
2017-07-19T21:36:20.980Z,8.77
2017-07-19T21:38:47.847Z,8.60
2017-07-19T21:41:15.529Z,8.90
2017-07-19T21:43:42.399Z,9.37
2017-07-19T21:46:09.319Z,9.10
2017-07-19T21:48:36.145Z,8.80
2017-07-19T21:51:03.085Z,8.27
2017-07-19T21:53:29.941Z,9.50
2017-07-19T21:55:56.817Z,8.20
2017-07-19T21:58:24.593Z,8.90
2017-07-19T22:00:51.598Z,8.53
2017-07-19T22:03:18.420Z,8.43
2017-07-19T22:05:45.254Z,9.90
2017-07-19T22:08:12.141Z,7.87
2017-07-19T22:10:38.988Z,8.63
2017-07-19T22:13:05.843Z,8.20
2017-07-19T22:15:32.702Z,8.80
2017-07-19T22:17:59.527Z,8.33
2017-07-19T22:20:26.367Z,9.00
2017-07-19T22:22:53.252Z,9.20
2017-07-19T22:25:20.154Z,8.93
2017-07-19T22:27:47.660Z,10.17
2017-07-19T22:30:14.552Z,10.70
2017-07-19T22:32:41.386Z,8.23
2017-07-19T22:35:08.233Z,11.53
2017-07-19T22:37:35.079Z,9.23
2017-07-19T22:40:01.957Z,8.30
2017-07-19T22:42:28.861Z,9.90
2017-07-19T22:44:56.473Z,8.63
2017-07-19T22:47:23.295Z,7.47
2017-07-19T22:49:50.109Z,9.83
2017-07-19T22:52:16.996Z,7.83
2017-07-19T22:54:43.828Z,9.17
2017-07-19T22:57:11.078Z,7.20
2017-07-19T22:59:37.966Z,7.63
2017-07-19T23:02:04.855Z,7.77
2017-07-19T23:04:31.675Z,7.40
2017-07-19T23:06:58.568Z,7.97
2017-07-19T23:09:25.386Z,7.50
2017-07-19T23:11:52.298Z,7.33
2017-07-19T23:14:19.928Z,7.10
2017-07-19T23:16:46.739Z,7.77
2017-07-19T23:19:13.552Z,7.57
2017-07-19T23:21:40.415Z,7.80
2017-07-19T23:24:07.259Z,7.67
2017-07-19T23:26:34.372Z,7.47
2017-07-19T23:29:01.233Z,6.93
2017-07-19T23:31:28.054Z,7.80
2017-07-19T23:33:55.010Z,9.17
2017-07-19T23:36:22.603Z,7.53
2017-07-19T23:38:50.119Z,6.70
2017-07-19T23:41:17.016Z,7.77
2017-07-19T23:43:44.191Z,7.47
2017-07-19T23:46:11.047Z,7.27
2017-07-19T23:48:37.945Z,7.77
2017-07-19T23:51:04.823Z,7.73
2017-07-19T23:53:31.736Z,11.33
2017-07-19T23:55:58.556Z,7.60
2017-07-19T23:58:25.451Z,6.63
